Time;durP1;ratioP1;P1;durP2;ratioP2;P2;SDS_P1;SDS_P2;PMS_P1;PMS_P2;Temp;Humidity;BMP_temperature;BMP_pressure;BME280_temperature;BME280_humidity;BME280_pressure;Samples;Min_cycle;Max_cycle;Signal;HPM_P1;HPM_P2
2023/09/11 00:02:01;;;;;;;6.13;4.60;;;23.80;99.90;;;;;;5051801;28;20192;-67
2023/09/11 00:04:27;;;;;;;5.63;4.57;;;23.80;99.90;;;;;;5044412;28;20178;-67
2023/09/11 00:06:52;;;;;;;5.80;4.13;;;23.80;99.90;;;;;;5050400;28;20183;-66
2023/09/11 00:09:18;;;;;;;5.25;4.45;;;23.70;99.90;;;;;;5041586;28;20208;-67
2023/09/11 00:11:44;;;;;;;5.75;4.32;;;23.70;99.90;;;;;;5054698;28;20197;-68
2023/09/11 00:14:09;;;;;;;6.78;4.03;;;23.70;99.90;;;;;;5046249;28;20195;-66
2023/09/11 00:16:35;;;;;;;6.63;4.57;;;23.70;99.90;;;;;;5048825;28;20198;-66
2023/09/11 00:19:03;;;;;;;7.03;4.20;;;23.70;99.90;;;;;;5049643;28;20239;-67
2023/09/11 00:21:31;;;;;;;7.47;4.82;;;23.60;99.90;;;;;;5052209;28;20201;-66
2023/09/11 00:23:59;;;;;;;6.45;4.40;;;23.60;99.90;;;;;;5046381;28;20177;-67
2023/09/11 00:26:27;;;;;;;6.55;5.20;;;23.60;99.90;;;;;;5047095;28;20207;-65
2023/09/11 00:28:55;;;;;;;8.10;5.07;;;23.50;99.90;;;;;;5045457;28;20177;-66
2023/09/11 00:31:20;;;;;;;5.40;4.53;;;23.50;99.90;;;;;;5047084;28;20225;-66
2023/09/11 00:33:46;;;;;;;5.28;4.78;;;23.50;99.90;;;;;;5044630;28;20185;-65
2023/09/11 00:36:14;;;;;;;6.70;4.90;;;23.50;99.90;;;;;;5049632;28;20173;-66
2023/09/11 00:38:39;;;;;;;6.57;4.60;;;23.50;99.90;;;;;;5047943;28;20270;-66
2023/09/11 00:41:05;;;;;;;5.35;4.50;;;23.40;99.90;;;;;;5042554;28;20181;-67
2023/09/11 00:43:31;;;;;;;4.80;4.30;;;23.60;99.90;;;;;;5043341;28;20223;-66
2023/09/11 00:45:57;;;;;;;5.68;4.30;;;23.30;99.90;;;;;;5048449;28;20260;-66
2023/09/11 00:48:23;;;;;;;5.65;4.45;;;23.30;99.90;;;;;;5048162;28;20344;-66
2023/09/11 00:50:50;;;;;;;6.43;4.63;;;23.30;99.90;;;;;;5042738;28;20173;-66
2023/09/11 00:53:17;;;;;;;6.32;4.35;;;23.30;99.90;;;;;;5046799;28;20264;-66
2023/09/11 00:55:44;;;;;;;7.40;4.60;;;23.30;99.90;;;;;;5046355;28;20186;-65
2023/09/11 00:58:10;;;;;;;7.28;4.53;;;23.20;99.90;;;;;;5048464;28;20220;-67
2023/09/11 01:00:41;;;;;;;9.98;5.10;;;23.20;99.90;;;;;;5044290;28;20810;-67
2023/09/11 01:03:07;;;;;;;5.95;4.78;;;23.20;99.90;;;;;;5047785;28;20177;-66
2023/09/11 01:05:35;;;;;;;5.68;4.53;;;23.20;99.90;;;;;;5046808;28;20192;-65
2023/09/11 01:08:01;;;;;;;5.22;4.63;;;23.10;99.90;;;;;;5040945;28;20248;-66
2023/09/11 01:10:29;;;;;;;6.00;4.75;;;23.10;99.90;;;;;;5049915;28;20200;-66
2023/09/11 01:12:58;;;;;;;5.63;4.75;;;23.10;99.90;;;;;;5043383;28;20197;-67
2023/09/11 01:15:27;;;;;;;4.90;4.38;;;23.00;99.90;;;;;;5046121;28;20178;-66
2023/09/11 01:18:02;;;;;;;5.20;4.70;;;23.00;99.90;;;;;;5048251;28;20205;-67
2023/09/11 01:20:38;;;;;;;6.72;4.57;;;23.00;99.90;;;;;;5045171;28;20173;-67
2023/09/11 01:23:22;;;;;;;4.85;4.32;;;22.90;99.90;;;;;;5037709;28;20184;-67
2023/09/11 01:26:22;;;;;;;5.40;4.15;;;22.90;99.90;;;;;;5046828;28;20173;-66
2023/09/11 01:29:11;;;;;;;5.70;4.13;;;22.90;99.90;;;;;;5029784;28;20190;-67
2023/09/11 01:31:38;;;;;;;5.07;4.50;;;22.90;99.90;;;;;;5043423;28;20174;-66
2023/09/11 01:34:05;;;;;;;5.28;4.55;;;22.80;99.90;;;;;;5050601;28;20276;-67
2023/09/11 01:36:31;;;;;;;8.15;4.75;;;22.80;99.90;;;;;;5039924;28;20239;-66
2023/09/11 01:38:58;;;;;;;6.72;4.25;;;22.80;99.90;;;;;;5045980;28;20197;-67
2023/09/11 01:41:34;;;;;;;5.57;4.50;;;22.80;99.90;;;;;;5044499;28;20223;-66
2023/09/11 01:44:23;;;;;;;8.48;4.88;;;22.70;99.90;;;;;;5047912;28;20338;-67
2023/09/11 01:46:51;;;;;;;5.20;4.38;;;22.70;99.90;;;;;;5037102;28;20181;-66
2023/09/11 01:49:22;;;;;;;6.95;4.20;;;22.70;99.90;;;;;;5047386;28;20197;-67
2023/09/11 01:51:51;;;;;;;5.07;4.57;;;22.70;99.90;;;;;;5045872;28;20169;-67
2023/09/11 01:54:17;;;;;;;6.00;5.03;;;22.60;99.90;;;;;;5052481;28;20256;-67
2023/09/11 01:56:43;;;;;;;5.75;4.68;;;22.60;99.90;;;;;;5046317;28;20198;-67
2023/09/11 01:59:08;;;;;;;6.05;4.85;;;22.60;99.90;;;;;;5057328;28;20201;-67
2023/09/11 02:01:34;;;;;;;6.90;5.05;;;22.60;99.90;;;;;;5045069;28;20178;-66
2023/09/11 02:04:00;;;;;;;6.60;5.00;;;22.50;99.90;;;;;;5056565;28;20169;-67
2023/09/11 02:06:25;;;;;;;6.97;4.60;;;22.50;99.90;;;;;;5056961;28;20173;-65
2023/09/11 02:08:51;;;;;;;6.65;4.72;;;22.40;99.90;;;;;;5055970;28;20239;-66
2023/09/11 02:11:19;;;;;;;7.32;4.90;;;22.40;99.90;;;;;;5055872;28;20181;-67
2023/09/11 02:13:45;;;;;;;4.97;4.32;;;22.40;99.90;;;;;;5055191;28;20199;-66
2023/09/11 02:16:10;;;;;;;5.53;4.30;;;22.40;99.90;;;;;;5047589;28;20173;-66
2023/09/11 02:18:38;;;;;;;7.63;4.43;;;22.30;99.90;;;;;;5043411;28;20196;-67
2023/09/11 02:21:06;;;;;;;6.03;4.28;;;22.30;99.90;;;;;;5048580;28;20224;-66
2023/09/11 02:23:31;;;;;;;5.43;4.40;;;22.30;99.90;;;;;;5049427;28;20179;-66
2023/09/11 02:26:00;;;;;;;5.15;4.38;;;22.30;99.90;;;;;;5042919;28;20178;-66
2023/09/11 02:28:26;;;;;;;5.85;4.35;;;22.30;99.90;;;;;;5052250;28;20189;-66
2023/09/11 02:30:52;;;;;;;5.90;4.40;;;22.30;99.90;;;;;;5049586;28;20386;-67
2023/09/11 02:33:18;;;;;;;6.70;4.38;;;22.30;99.90;;;;;;5046957;28;20212;-66
2023/09/11 02:35:44;;;;;;;6.47;4.82;;;22.30;99.90;;;;;;5052886;28;20201;-67
2023/09/11 02:38:12;;;;;;;5.15;4.60;;;22.20;99.90;;;;;;5049274;28;20236;-66
2023/09/11 02:40:40;;;;;;;5.10;4.25;;;22.20;99.90;;;;;;5050926;28;20215;-66
2023/09/11 02:43:08;;;;;;;9.07;4.70;;;22.20;99.90;;;;;;5040697;28;20178;-66
2023/09/11 02:45:34;;;;;;;5.38;4.50;;;22.20;99.90;;;;;;5045604;28;20181;-66
2023/09/11 02:48:01;;;;;;;5.75;4.30;;;22.20;99.90;;;;;;5052096;28;20201;-66
2023/09/11 02:50:29;;;;;;;6.10;4.32;;;22.20;99.90;;;;;;5049560;28;20272;-66
2023/09/11 02:52:55;;;;;;;6.32;4.32;;;22.10;99.90;;;;;;5064568;28;20182;-67
2023/09/11 02:55:21;;;;;;;7.50;4.50;;;22.10;99.90;;;;;;5048494;28;20196;-67
2023/09/11 02:57:51;;;;;;;6.78;4.57;;;22.10;99.90;;;;;;5048167;28;20201;-67
2023/09/11 03:00:22;;;;;;;4.82;4.32;;;22.10;99.90;;;;;;5048094;28;20181;-66
2023/09/11 03:02:50;;;;;;;5.63;4.07;;;22.10;99.90;;;;;;5061786;28;20205;-67
2023/09/11 03:05:17;;;;;;;7.10;4.15;;;22.10;99.90;;;;;;5046947;28;20265;-66
2023/09/11 03:07:43;;;;;;;5.20;3.95;;;22.10;99.90;;;;;;5047741;28;20285;-66
2023/09/11 03:10:09;;;;;;;6.22;4.68;;;22.00;99.90;;;;;;5050572;28;20253;-67
2023/09/11 03:12:34;;;;;;;4.65;4.18;;;22.00;99.90;;;;;;5042623;28;20188;-66
2023/09/11 03:15:03;;;;;;;5.93;4.32;;;22.00;99.90;;;;;;5042446;28;20193;-66
2023/09/11 03:17:30;;;;;;;5.28;4.28;;;22.00;99.90;;;;;;5050632;28;20193;-66
2023/09/11 03:19:56;;;;;;;6.07;4.22;;;22.00;99.90;;;;;;5039605;28;20216;-67
2023/09/11 03:22:22;;;;;;;5.75;4.25;;;21.90;99.90;;;;;;5050514;28;20173;-66
2023/09/11 03:24:48;;;;;;;8.70;4.13;;;21.90;99.90;;;;;;5047192;28;20184;-66
2023/09/11 03:27:14;;;;;;;6.93;4.60;;;21.90;99.90;;;;;;5042684;28;20270;-66
2023/09/11 03:29:40;;;;;;;5.07;4.10;;;21.90;99.90;;;;;;5050940;28;20237;-66
2023/09/11 03:32:06;;;;;;;6.78;4.60;;;21.90;99.90;;;;;;5054880;28;20185;-67
2023/09/11 03:34:31;;;;;;;7.68;4.70;;;21.90;99.90;;;;;;5051419;28;20173;-66
2023/09/11 03:37:00;;;;;;;5.10;4.10;;;21.80;99.90;;;;;;5045487;28;20181;-67
2023/09/11 03:39:25;;;;;;;6.20;4.35;;;21.80;99.90;;;;;;5048646;28;20212;-66
2023/09/11 03:41:51;;;;;;;4.85;4.15;;;21.80;99.90;;;;;;5041534;28;20193;-67
2023/09/11 03:44:17;;;;;;;4.78;4.05;;;21.80;99.90;;;;;;5053040;28;20169;-67
2023/09/11 03:46:44;;;;;;;6.70;5.00;;;21.80;99.90;;;;;;5041071;28;20189;-66
2023/09/11 03:49:12;;;;;;;5.97;4.47;;;21.80;99.90;;;;;;5050359;28;20268;-66
2023/09/11 03:51:38;;;;;;;5.47;4.47;;;21.70;99.90;;;;;;5041882;28;20174;-67
2023/09/11 03:54:10;;;;;;;8.13;4.15;;;21.70;99.90;;;;;;5055424;28;20169;-67
2023/09/11 03:56:35;;;;;;;5.13;4.50;;;21.70;99.90;;;;;;5055209;28;20181;-66
2023/09/11 03:59:03;;;;;;;6.53;4.90;;;21.70;99.90;;;;;;5055497;28;20220;-66
2023/09/11 04:01:29;;;;;;;6.45;4.78;;;21.60;99.90;;;;;;5055721;28;20228;-67
2023/09/11 04:03:54;;;;;;;5.38;4.05;;;21.60;99.90;;;;;;5055971;28;20180;-67
2023/09/11 04:06:22;;;;;;;5.38;4.30;;;21.60;99.90;;;;;;5054102;28;20170;-65
2023/09/11 04:08:49;;;;;;;8.50;4.63;;;21.60;99.90;;;;;;5055436;28;20241;-66
2023/09/11 04:11:15;;;;;;;5.30;4.35;;;21.60;99.90;;;;;;5053965;28;20201;-67
2023/09/11 04:13:45;;;;;;;6.60;4.68;;;21.50;99.90;;;;;;5043439;28;20259;-70
2023/09/11 04:16:15;;;;;;;5.75;4.55;;;21.50;99.90;;;;;;5041290;28;20193;-70
2023/09/11 04:18:43;;;;;;;6.18;4.43;;;21.50;99.90;;;;;;5050519;28;20216;-69
2023/09/11 04:21:09;;;;;;;7.22;4.95;;;21.50;99.90;;;;;;5040100;28;20196;-68
2023/09/11 04:23:37;;;;;;;7.82;4.88;;;21.50;99.90;;;;;;5043433;28;20206;-69
2023/09/11 04:26:06;;;;;;;5.68;4.20;;;21.50;99.90;;;;;;5048467;28;20177;-67
2023/09/11 04:28:33;;;;;;;6.50;4.60;;;21.50;99.90;;;;;;5046783;28;20264;-69
2023/09/11 04:30:59;;;;;;;14.27;9.55;;;21.50;99.90;;;;;;5044900;28;20201;-70
2023/09/11 04:33:24;;;;;;;9.35;6.53;;;21.50;99.90;;;;;;5049078;28;20181;-70
2023/09/11 04:35:51;;;;;;;8.27;5.32;;;21.50;99.90;;;;;;5050436;28;20208;-69
2023/09/11 04:38:17;;;;;;;9.10;5.85;;;21.50;99.90;;;;;;5038025;28;20208;-70
2023/09/11 04:40:42;;;;;;;7.90;5.95;;;21.50;99.90;;;;;;5043684;28;20182;-70
2023/09/11 04:43:08;;;;;;;13.40;6.35;;;21.50;99.90;;;;;;5049516;28;20213;-69
2023/09/11 04:45:33;;;;;;;7.95;5.78;;;21.50;99.90;;;;;;5043397;28;20256;-70
2023/09/11 04:47:59;;;;;;;7.57;4.75;;;21.50;99.90;;;;;;5046094;28;20180;-69
2023/09/11 04:50:25;;;;;;;7.15;4.82;;;21.50;99.90;;;;;;5060766;28;20227;-69
2023/09/11 04:52:51;;;;;;;5.45;4.32;;;21.50;99.90;;;;;;5048480;28;20227;-68
2023/09/11 04:55:17;;;;;;;7.63;5.07;;;21.50;99.90;;;;;;5042615;28;20253;-65
2023/09/11 04:57:47;;;;;;;7.75;4.57;;;21.50;99.90;;;;;;5049430;28;20207;-66
2023/09/11 05:00:15;;;;;;;7.75;5.05;;;21.50;99.90;;;;;;5042327;28;20178;-66
2023/09/11 05:02:46;;;;;;;10.27;4.60;;;21.50;99.90;;;;;;5046616;28;20269;-65
2023/09/11 05:05:11;;;;;;;7.88;4.88;;;21.50;99.90;;;;;;5047141;28;20182;-66
2023/09/11 05:07:37;;;;;;;9.48;5.38;;;21.50;99.90;;;;;;5040046;28;20196;-66
2023/09/11 05:10:05;;;;;;;7.38;4.68;;;21.50;99.90;;;;;;5046819;28;20202;-66
2023/09/11 05:12:31;;;;;;;6.20;4.95;;;21.50;99.90;;;;;;5045857;28;20213;-66
2023/09/11 05:14:56;;;;;;;5.38;4.80;;;21.50;99.90;;;;;;5041043;28;20508;-65
2023/09/11 05:17:22;;;;;;;5.18;4.68;;;21.50;99.90;;;;;;5042774;28;20288;-66
2023/09/11 05:19:47;;;;;;;5.30;4.38;;;21.50;99.90;;;;;;5047974;28;20204;-67
2023/09/11 05:22:18;;;;;;;6.60;4.80;;;21.50;99.90;;;;;;5043670;28;20181;-66
2023/09/11 05:24:43;;;;;;;6.45;4.75;;;21.50;99.90;;;;;;5043940;28;20252;-67
2023/09/11 05:27:11;;;;;;;9.00;4.90;;;21.50;99.90;;;;;;5047939;28;20383;-66
2023/09/11 05:29:39;;;;;;;5.55;4.55;;;21.50;99.90;;;;;;5039180;28;20224;-66
2023/09/11 05:32:05;;;;;;;7.53;4.70;;;21.50;99.90;;;;;;5051018;28;20181;-66
2023/09/11 05:34:30;;;;;;;5.45;4.80;;;21.50;99.90;;;;;;5049489;28;20178;-66
2023/09/11 05:36:56;;;;;;;8.45;5.78;;;21.50;99.90;;;;;;5045402;28;20246;-66
2023/09/11 05:39:24;;;;;;;8.45;6.82;;;21.40;99.90;;;;;;5046203;28;20212;-66
2023/09/11 05:41:51;;;;;;;10.23;5.88;;;21.50;99.90;;;;;;5045958;28;20185;-67
2023/09/11 05:44:17;;;;;;;6.70;4.85;;;21.40;99.90;;;;;;5053387;28;20484;-66
2023/09/11 05:46:45;;;;;;;8.32;4.80;;;21.40;99.90;;;;;;5048260;28;20181;-65
2023/09/11 05:49:12;;;;;;;9.43;4.85;;;21.50;99.90;;;;;;5057628;28;20169;-67
2023/09/11 05:51:40;;;;;;;5.35;4.38;;;21.50;99.90;;;;;;5057887;28;20463;-66
2023/09/11 05:54:06;;;;;;;6.18;4.63;;;21.50;99.90;;;;;;5049466;28;20290;-66
2023/09/11 05:56:32;;;;;;;7.72;5.07;;;21.50;99.90;;;;;;5048405;28;20252;-66
2023/09/11 05:58:57;;;;;;;5.78;4.63;;;21.50;99.90;;;;;;5040363;28;20201;-65
2023/09/11 06:01:23;;;;;;;8.02;4.75;;;21.50;99.90;;;;;;5037799;28;20197;-67
2023/09/11 06:03:48;;;;;;;7.47;5.15;;;21.50;99.90;;;;;;5037484;28;20244;-66
2023/09/11 06:06:14;;;;;;;7.20;5.00;;;21.50;99.90;;;;;;5037685;28;20174;-66
2023/09/11 06:08:42;;;;;;;5.95;4.65;;;21.60;99.90;;;;;;5054057;28;20185;-66
2023/09/11 06:11:10;;;;;;;13.00;5.50;;;21.60;99.90;;;;;;5057703;28;20192;-67
2023/09/11 06:13:35;;;;;;;7.90;4.65;;;21.60;99.90;;;;;;5050722;28;20201;-66
2023/09/11 06:16:04;;;;;;;8.73;4.43;;;21.60;99.90;;;;;;5057306;28;20236;-66
2023/09/11 06:18:29;;;;;;;8.30;4.50;;;21.70;99.90;;;;;;5050677;28;20334;-66
2023/09/11 06:20:57;;;;;;;7.43;4.50;;;21.70;99.90;;;;;;5050465;28;20260;-66
2023/09/11 06:23:23;;;;;;;6.60;5.00;;;21.70;99.90;;;;;;5064299;28;20286;-66
2023/09/11 06:25:48;;;;;;;6.90;4.75;;;21.80;99.90;;;;;;5049640;28;20261;-66
2023/09/11 06:28:14;;;;;;;5.55;4.88;;;21.80;99.90;;;;;;5045127;28;20367;-66
2023/09/11 06:30:40;;;;;;;7.28;5.15;;;21.80;99.90;;;;;;5046436;28;21360;-66
2023/09/11 06:33:05;;;;;;;8.77;5.13;;;21.90;99.90;;;;;;5048440;28;20181;-66
2023/09/11 06:35:31;;;;;;;8.07;5.13;;;21.90;99.90;;;;;;5044713;28;20190;-66
2023/09/11 06:37:56;;;;;;;6.00;4.90;;;22.00;99.90;;;;;;5046154;28;20268;-66
2023/09/11 06:40:24;;;;;;;6.22;4.05;;;22.00;99.90;;;;;;5050924;28;20174;-66
2023/09/11 06:42:52;;;;;;;8.40;4.75;;;22.00;99.90;;;;;;5045287;28;20181;-66
2023/09/11 06:45:18;;;;;;;6.57;4.47;;;22.10;99.90;;;;;;5052160;28;20192;-65
2023/09/11 06:47:46;;;;;;;5.75;4.72;;;22.20;99.90;;;;;;5049577;28;20173;-66
2023/09/11 06:50:11;;;;;;;6.38;4.82;;;22.20;99.90;;;;;;5050735;28;20188;-65
2023/09/11 06:52:39;;;;;;;7.93;4.65;;;22.30;99.90;;;;;;5054330;28;20261;-65
2023/09/11 06:55:10;;;;;;;12.55;5.30;;;22.30;99.90;;;;;;5045476;28;20179;-66
2023/09/11 06:57:41;;;;;;;7.35;4.80;;;22.40;99.90;;;;;;5050225;28;20209;-66
2023/09/11 07:00:10;;;;;;;8.10;4.85;;;22.40;99.90;;;;;;5049161;28;20181;-66
2023/09/11 07:02:38;;;;;;;9.48;5.28;;;22.50;99.90;;;;;;5047750;28;20264;-66
2023/09/11 07:05:04;;;;;;;8.63;4.45;;;22.50;99.90;;;;;;5051724;28;20208;-66
2023/09/11 07:07:30;;;;;;;6.55;4.50;;;22.60;99.90;;;;;;5043790;28;20237;-65
2023/09/11 07:09:56;;;;;;;7.05;4.28;;;22.60;99.90;;;;;;5046130;28;20177;-66
2023/09/11 07:12:22;;;;;;;6.68;4.53;;;22.70;99.90;;;;;;5052266;28;20263;-66
2023/09/11 07:14:48;;;;;;;8.07;4.60;;;22.80;99.90;;;;;;5050762;28;20211;-65
2023/09/11 07:17:13;;;;;;;10.40;4.65;;;22.80;99.90;;;;;;5050516;28;20182;-65
2023/09/11 07:19:39;;;;;;;7.93;4.68;;;22.90;99.90;;;;;;5051180;28;20177;-66
2023/09/11 07:22:05;;;;;;;6.38;4.47;;;22.90;99.90;;;;;;5042508;28;20188;-65
2023/09/11 07:24:31;;;;;;;9.75;4.80;;;23.00;99.90;;;;;;5044424;28;20174;-65
2023/09/11 07:26:57;;;;;;;7.03;4.45;;;23.10;99.90;;;;;;5036377;28;20166;-66
2023/09/11 07:29:26;;;;;;;8.50;4.70;;;23.20;99.90;;;;;;5049163;28;20246;-66
2023/09/11 07:31:52;;;;;;;6.30;4.40;;;23.30;99.90;;;;;;5048052;28;20216;-66
2023/09/11 07:34:20;;;;;;;7.95;4.25;;;23.30;99.90;;;;;;5050578;28;20186;-66
2023/09/11 07:36:45;;;;;;;5.55;3.97;;;23.40;99.90;;;;;;5048333;28;20174;-66
2023/09/11 07:39:11;;;;;;;10.57;4.80;;;23.50;99.90;;;;;;5044015;28;20213;-66
2023/09/11 07:41:37;;;;;;;5.97;4.05;;;23.50;99.90;;;;;;5046744;28;20173;-66
2023/09/11 07:44:05;;;;;;;6.97;4.57;;;23.60;99.90;;;;;;5055402;28;20169;-66
2023/09/11 07:46:33;;;;;;;7.15;4.70;;;23.70;99.90;;;;;;5055351;28;20208;-66
2023/09/11 07:49:00;;;;;;;14.63;9.18;;;23.70;99.90;;;;;;5055717;28;20173;-66
2023/09/11 07:51:26;;;;;;;10.32;6.07;;;23.80;99.90;;;;;;5055735;28;20369;-66
2023/09/11 07:53:55;;;;;;;7.35;5.53;;;23.90;99.90;;;;;;5054396;28;20238;-66
2023/09/11 07:56:21;;;;;;;9.35;5.35;;;24.00;99.90;;;;;;5055613;28;20170;-66
2023/09/11 07:58:50;;;;;;;7.00;4.20;;;24.00;99.90;;;;;;5055105;28;20258;-66
2023/09/11 08:01:16;;;;;;;6.03;4.25;;;24.10;99.90;;;;;;5055201;28;20158;-67
2023/09/11 08:03:44;;;;;;;6.05;4.20;;;24.20;99.90;;;;;;5055050;28;20181;-67
2023/09/11 08:06:10;;;;;;;7.47;4.10;;;24.30;99.90;;;;;;5055346;28;20193;-66
2023/09/11 08:08:38;;;;;;;6.85;4.70;;;24.30;99.90;;;;;;5055315;28;20174;-66
2023/09/11 08:11:23;;;;;;;5.85;3.95;;;24.40;99.90;;;;;;5055382;28;20268;-66
2023/09/11 08:13:53;;;;;;;9.38;4.43;;;24.50;99.90;;;;;;5044596;28;20208;-65
2023/09/11 08:16:19;;;;;;;9.27;4.15;;;24.50;99.90;;;;;;5048386;28;20178;-66
2023/09/11 08:18:46;;;;;;;9.50;4.07;;;24.60;99.90;;;;;;5045187;28;20212;-66
2023/09/11 08:21:12;;;;;;;6.43;4.18;;;24.70;99.90;;;;;;5046167;28;20208;-66
2023/09/11 08:23:41;;;;;;;6.13;4.30;;;24.80;99.90;;;;;;5046426;28;20197;-66
2023/09/11 08:26:08;;;;;;;9.32;4.05;;;24.90;99.90;;;;;;5044443;28;20219;-65
2023/09/11 08:28:33;;;;;;;6.07;3.88;;;24.90;99.90;;;;;;5050448;28;20184;-65
2023/09/11 08:31:02;;;;;;;9.00;4.25;;;25.00;99.90;;;;;;5042363;28;20269;-65
2023/09/11 08:33:27;;;;;;;6.93;3.92;;;25.10;99.90;;;;;;5046291;28;20212;-65
2023/09/11 08:35:53;;;;;;;5.93;3.55;;;25.20;99.90;;;;;;5044335;28;20178;-66
2023/09/11 08:38:23;;;;;;;5.40;3.88;;;25.30;99.90;;;;;;5045135;28;20240;-65
2023/09/11 08:40:49;;;;;;;8.18;4.10;;;25.40;99.90;;;;;;5043623;28;20284;-65
2023/09/11 08:43:17;;;;;;;6.03;3.90;;;25.50;99.90;;;;;;5039920;28;20265;-66
2023/09/11 08:45:45;;;;;;;7.43;3.90;;;25.60;99.90;;;;;;5049911;28;20235;-66
2023/09/11 08:48:15;;;;;;;6.45;3.88;;;25.70;99.90;;;;;;5043948;28;20268;-66
2023/09/11 08:50:50;;;;;;;7.05;3.60;;;25.80;99.90;;;;;;5042715;28;20191;-66
2023/09/11 08:53:20;;;;;;;8.77;3.67;;;25.90;99.90;;;;;;5047908;28;20227;-66
2023/09/11 08:55:47;;;;;;;6.03;3.67;;;26.00;99.90;;;;;;5045911;28;20182;-66
2023/09/11 08:58:15;;;;;;;6.55;3.83;;;26.10;99.90;;;;;;5051840;28;20205;-66
2023/09/11 09:00:44;;;;;;;8.07;3.92;;;26.20;99.90;;;;;;5054120;28;20193;-67
2023/09/11 09:03:13;;;;;;;7.88;4.03;;;26.30;99.90;;;;;;5051267;28;20192;-66
2023/09/11 09:05:40;;;;;;;4.63;3.58;;;26.40;99.90;;;;;;5060589;28;20174;-66
2023/09/11 09:08:07;;;;;;;7.50;3.53;;;26.60;99.90;;;;;;5046690;28;20197;-66
2023/09/11 09:10:35;;;;;;;6.05;3.92;;;26.70;99.90;;;;;;5048575;28;20189;-66
2023/09/11 09:13:02;;;;;;;6.10;4.07;;;26.80;99.90;;;;;;5057873;28;20189;-66
2023/09/11 09:15:29;;;;;;;6.13;3.50;;;26.90;99.90;;;;;;5045744;28;20205;-66
2023/09/11 09:17:55;;;;;;;7.47;3.90;;;27.00;99.90;;;;;;5047204;28;20216;-67
2023/09/11 09:20:29;;;;;;;8.48;4.10;;;27.10;99.90;;;;;;5049736;28;20262;-66
2023/09/11 09:22:59;;;;;;;5.95;4.07;;;27.30;99.90;;;;;;5047850;28;20288;-67
2023/09/11 09:25:26;;;;;;;6.18;3.97;;;27.40;99.90;;;;;;5046992;28;20174;-66
2023/09/11 09:27:52;;;;;;;5.72;3.88;;;27.50;99.90;;;;;;5049391;28;20201;-66
2023/09/11 09:30:28;;;;;;;6.90;4.30;;;27.60;99.90;;;;;;5048704;28;20259;-66
2023/09/11 09:32:55;;;;;;;8.45;4.00;;;27.70;99.90;;;;;;5064427;28;20184;-66
2023/09/11 09:35:30;;;;;;;7.45;3.47;;;27.90;99.90;;;;;;5044327;28;20224;-67
2023/09/11 09:37:57;;;;;;;5.97;3.70;;;27.90;99.90;;;;;;5047068;28;20197;-68
2023/09/11 09:40:35;;;;;;;7.80;3.55;;;28.00;99.90;;;;;;5047558;28;20330;-67
2023/09/11 09:43:05;;;;;;;7.43;4.18;;;28.20;99.90;;;;;;5039270;28;20248;-67
2023/09/11 09:45:37;;;;;;;6.30;3.85;;;28.30;99.90;;;;;;5039669;28;20188;-67
2023/09/11 09:48:07;;;;;;;10.57;3.85;;;28.40;99.90;;;;;;5054201;28;20235;-67
2023/09/11 09:50:51;;;;;;;5.25;3.47;;;28.70;99.90;;;;;;5054292;28;20165;-66
2023/09/11 09:53:27;;;;;;;6.75;4.10;;;29.30;99.90;;;;;;5054059;28;20217;-66
2023/09/11 09:55:55;;;;;;;8.10;4.00;;;29.90;99.90;;;;;;5054000;28;20220;-68
2023/09/11 09:58:30;;;;;;;4.80;3.35;;;30.50;99.90;;;;;;5053642;28;20298;-66
2023/09/11 10:01:02;;;;;;;6.00;3.65;;;31.20;99.90;;;;;;5053746;28;20165;-67
2023/09/11 10:03:36;;;;;;;5.78;3.55;;;31.80;99.90;;;;;;5053953;28;20270;-67
2023/09/11 10:06:06;;;;;;;6.47;3.65;;;32.30;99.90;;;;;;5053725;28;20169;-68
2023/09/11 10:08:31;;;;;;;5.97;3.72;;;32.70;99.90;;;;;;5053949;28;20196;-67
2023/09/11 10:10:59;;;;;;;5.45;3.92;;;33.20;99.90;;;;;;5053543;28;20219;-67
2023/09/11 10:13:27;;;;;;;8.30;3.70;;;33.60;99.90;;;;;;5046971;28;20285;-67
2023/09/11 10:15:55;;;;;;;5.32;3.35;;;34.00;99.90;;;;;;5047315;28;20254;-67
2023/09/11 10:18:21;;;;;;;6.75;3.17;;;34.30;99.90;;;;;;5053237;28;20193;-66
2023/09/11 10:20:50;;;;;;;5.15;3.08;;;34.60;99.90;;;;;;5045738;28;20177;-67
2023/09/11 10:23:16;;;;;;;7.32;3.10;;;34.80;99.90;;;;;;5051518;28;20256;-66
2023/09/11 10:25:48;;;;;;;6.38;3.17;;;35.10;99.90;;;;;;5043519;28;20177;-67
2023/09/11 10:28:33;;;;;;;6.72;3.22;;;35.40;99.80;;;;;;5057015;28;20195;-67
2023/09/11 10:31:11;;;;;;;4.45;3.28;;;35.70;98.30;;;;;;5050423;28;20792;-67
2023/09/11 10:33:44;;;;;;;4.72;3.00;;;35.90;98.10;;;;;;5052447;28;20189;-66
2023/09/11 10:36:20;;;;;;;4.90;3.00;;;36.10;98.00;;;;;;5045982;28;20181;-67
2023/09/11 10:38:49;;;;;;;5.15;3.28;;;36.30;96.60;;;;;;5050215;28;20230;-67
2023/09/11 10:41:14;;;;;;;7.93;3.10;;;36.50;97.40;;;;;;5051791;28;20181;-67
2023/09/11 10:43:47;;;;;;;5.05;2.83;;;36.60;96.70;;;;;;5049038;28;20227;-67
2023/09/11 10:46:21;;;;;;;7.97;3.08;;;36.80;96.30;;;;;;5050207;28;20242;-67
2023/09/11 10:48:48;;;;;;;4.28;3.10;;;36.90;93.10;;;;;;5052145;28;20262;-67
2023/09/11 10:51:14;;;;;;;5.60;2.78;;;37.00;94.10;;;;;;5049885;28;20200;-67
2023/09/11 10:53:43;;;;;;;5.72;2.95;;;37.00;93.70;;;;;;5044042;28;20173;-67
2023/09/11 10:56:10;;;;;;;4.10;2.70;;;37.00;93.40;;;;;;5049097;28;20199;-68
2023/09/11 10:58:36;;;;;;;3.95;2.70;;;37.00;92.90;;;;;;5052574;28;20200;-67
2023/09/11 11:01:05;;;;;;;4.43;2.85;;;37.10;92.50;;;;;;5049778;28;20231;-67
2023/09/11 11:03:32;;;;;;;3.05;2.58;;;37.10;91.00;;;;;;5060147;28;20243;-67
2023/09/11 11:06:06;;;;;;;5.22;3.28;;;37.10;90.90;;;;;;5043416;28;20375;-68
2023/09/11 11:08:36;;;;;;;7.50;3.38;;;37.10;88.60;;;;;;5050410;28;20185;-67
2023/09/11 11:11:02;;;;;;;4.90;3.25;;;37.10;88.30;;;;;;5055144;28;20200;-67
2023/09/11 11:13:29;;;;;;;3.92;2.70;;;37.10;89.10;;;;;;5047398;28;20197;-67
2023/09/11 11:16:19;;;;;;;5.63;3.13;;;37.10;87.20;;;;;;5045803;28;20205;-68
2023/09/11 11:18:45;;;;;;;3.80;2.90;;;37.10;83.40;;;;;;5047869;28;20211;-67
2023/09/11 11:21:11;;;;;;;4.38;2.72;;;37.00;86.80;;;;;;5050361;28;20267;-67
2023/09/11 11:23:58;;;;;;;3.90;2.50;;;37.00;84.90;;;;;;5049261;28;20180;-67
2023/09/11 11:26:29;;;;;;;7.07;3.15;;;37.00;81.40;;;;;;5052578;28;20192;-67
2023/09/11 11:28:58;;;;;;;5.80;2.60;;;37.00;82.40;;;;;;5050882;28;20281;-68
2023/09/11 11:31:24;;;;;;;3.10;2.72;;;36.90;83.20;;;;;;5050993;28;20215;-68
2023/09/11 11:33:51;;;;;;;5.60;3.20;;;36.90;84.10;;;;;;5043437;28;20265;-67
2023/09/11 11:36:24;;;;;;;7.68;3.55;;;36.90;82.00;;;;;;5047455;28;20208;-67
2023/09/11 11:38:56;;;;;;;5.22;2.90;;;36.90;81.40;;;;;;5054343;28;20212;-67
2023/09/11 11:41:25;;;;;;;4.05;2.85;;;36.80;81.20;;;;;;5051477;28;20177;-67
2023/09/11 11:43:51;;;;;;;6.05;3.10;;;36.80;82.40;;;;;;5043263;28;20260;-68
2023/09/11 11:46:25;;;;;;;4.57;2.70;;;36.90;81.50;;;;;;5055262;28;20280;-68
2023/09/11 11:48:51;;;;;;;5.03;2.80;;;36.90;81.60;;;;;;5055419;28;20180;-68
2023/09/11 11:51:27;;;;;;;5.13;2.83;;;36.90;81.10;;;;;;5055739;28;20192;-69
2023/09/11 11:53:54;;;;;;;4.70;2.75;;;36.90;78.60;;;;;;5055397;28;20252;-67
2023/09/11 11:56:20;;;;;;;5.57;2.67;;;37.00;80.20;;;;;;5056463;28;20172;-68
2023/09/11 11:58:49;;;;;;;5.57;2.83;;;37.00;79.50;;;;;;5055434;28;20240;-68
2023/09/11 12:01:17;;;;;;;4.35;2.90;;;37.00;78.30;;;;;;5055379;28;20226;-66
2023/09/11 12:03:49;;;;;;;4.93;3.03;;;37.10;78.80;;;;;;5055188;28;20188;-68
2023/09/11 12:06:16;;;;;;;3.78;2.70;;;37.10;76.30;;;;;;5055369;28;20199;-68
2023/09/11 12:08:44;;;;;;;6.10;2.70;;;37.10;78.00;;;;;;5048643;28;20185;-68
2023/09/11 12:11:10;;;;;;;4.05;2.50;;;37.20;77.00;;;;;;5035319;28;20181;-68
2023/09/11 12:13:38;;;;;;;3.58;2.65;;;37.20;77.10;;;;;;5035235;28;20213;-67
2023/09/11 12:16:04;;;;;;;3.83;2.75;;;37.20;77.00;;;;;;5035628;28;20295;-68
2023/09/11 12:18:35;;;;;;;5.00;2.90;;;37.30;77.00;;;;;;5035302;28;20235;-67
2023/09/11 12:21:03;;;;;;;3.88;2.42;;;37.30;76.10;;;;;;5035286;28;20166;-68
2023/09/11 12:23:29;;;;;;;4.50;2.78;;;37.40;75.30;;;;;;5038186;28;20190;-66
2023/09/11 12:25:55;;;;;;;4.43;2.88;;;37.40;74.90;;;;;;5044798;28;20201;-69
2023/09/11 12:28:22;;;;;;;4.03;2.80;;;37.40;74.50;;;;;;5051924;28;20243;-67
2023/09/11 12:30:49;;;;;;;4.47;3.00;;;37.40;74.90;;;;;;5043650;28;20249;-67
2023/09/11 12:33:20;;;;;;;4.70;2.80;;;37.40;73.40;;;;;;5045171;28;20420;-67
2023/09/11 12:35:46;;;;;;;2.88;2.45;;;37.50;73.50;;;;;;5046649;28;20192;-67
2023/09/11 12:38:14;;;;;;;4.22;2.80;;;37.50;73.80;;;;;;5047935;28;20324;-68
2023/09/11 12:40:48;;;;;;;5.45;2.72;;;37.50;72.60;;;;;;5050206;28;20205;-68
2023/09/11 12:43:17;;;;;;;7.68;3.35;;;37.60;73.50;;;;;;5044608;28;20180;-67
2023/09/11 12:45:44;;;;;;;8.00;2.78;;;37.70;72.80;;;;;;5043733;28;20206;-68
2023/09/11 12:48:10;;;;;;;5.10;2.60;;;37.80;71.80;;;;;;5047196;28;20188;-68
2023/09/11 12:50:39;;;;;;;4.38;2.50;;;37.80;71.50;;;;;;5052412;28;20230;-67